Time;durP1;ratioP1;P1;durP2;ratioP2;P2;SDS_P1;SDS_P2;PMS_P1;PMS_P2;Temp;Humidity;BMP_temperature;BMP_pressure;BME280_temperature;BME280_humidity;BME280_pressure;Samples;Min_cycle;Max_cycle;Signal;HPM_P1;HPM_P2
2023/09/25 00:01:00;;;;;;;2.53;1.27;;;21.00;72.20;;;;;;4973930;28;20213;-70
2023/09/25 00:03:25;;;;;;;1.55;1.38;;;21.00;72.20;;;;;;4976121;28;20271;-71
2023/09/25 00:05:51;;;;;;;2.20;1.50;;;21.00;72.30;;;;;;4941889;28;20190;-71
2023/09/25 00:08:17;;;;;;;2.90;1.60;;;20.90;72.10;;;;;;4944964;28;20221;-71
2023/09/25 00:10:43;;;;;;;1.63;1.48;;;20.90;72.10;;;;;;4958465;28;20225;-71
2023/09/25 00:13:08;;;;;;;1.23;1.10;;;20.90;72.10;;;;;;4966503;28;20276;-71
2023/09/25 00:15:34;;;;;;;1.30;1.20;;;20.90;72.20;;;;;;4940312;28;20182;-71
2023/09/25 00:18:00;;;;;;;1.45;1.35;;;21.00;72.20;;;;;;4940772;28;20629;-71
2023/09/25 00:20:25;;;;;;;1.55;1.45;;;20.90;72.10;;;;;;4973430;28;20309;-71
2023/09/25 00:22:52;;;;;;;1.38;1.27;;;20.90;72.20;;;;;;4956271;28;20205;-71
2023/09/25 00:25:20;;;;;;;1.50;1.40;;;20.90;72.10;;;;;;4940094;28;20205;-71
2023/09/25 00:27:46;;;;;;;2.28;1.40;;;20.90;72.10;;;;;;4956077;28;20349;-70
2023/09/25 00:30:14;;;;;;;1.30;1.20;;;20.90;72.20;;;;;;4943406;28;20269;-71
2023/09/25 00:32:40;;;;;;;1.90;1.50;;;20.90;72.00;;;;;;4973404;28;20218;-71
2023/09/25 00:35:10;;;;;;;1.50;1.35;;;20.90;72.10;;;;;;4944074;28;20196;-71
2023/09/25 00:37:37;;;;;;;1.23;1.13;;;20.90;72.00;;;;;;4956303;28;20228;-71
2023/09/25 00:40:14;;;;;;;1.45;1.35;;;20.90;72.00;;;;;;4940921;28;20232;-71
2023/09/25 00:42:41;;;;;;;1.02;0.93;;;20.90;72.00;;;;;;4956113;28;20209;-70
2023/09/25 00:45:09;;;;;;;1.30;1.20;;;20.90;72.10;;;;;;4941830;28;20228;-71
2023/09/25 00:47:35;;;;;;;1.20;1.10;;;20.90;72.10;;;;;;4955736;28;20605;-70
2023/09/25 00:50:04;;;;;;;1.40;1.30;;;20.90;72.10;;;;;;4956065;28;20229;-71
2023/09/25 00:52:33;;;;;;;2.03;1.45;;;20.90;72.10;;;;;;4955729;28;20193;-71
2023/09/25 00:55:01;;;;;;;1.40;1.30;;;20.90;72.20;;;;;;4972015;28;20192;-71
2023/09/25 00:57:28;;;;;;;1.20;1.10;;;20.90;72.20;;;;;;4939376;28;20212;-71
2023/09/25 00:59:54;;;;;;;1.30;1.20;;;20.90;72.20;;;;;;4955891;28;20193;-70
2023/09/25 01:02:20;;;;;;;1.05;1.00;;;20.90;72.10;;;;;;4939276;28;20208;-71
2023/09/25 01:04:46;;;;;;;1.25;1.15;;;20.90;72.20;;;;;;4955748;28;20193;-71
2023/09/25 01:07:12;;;;;;;1.30;1.20;;;20.90;72.20;;;;;;4955571;28;20294;-71
2023/09/25 01:09:38;;;;;;;1.58;1.48;;;20.90;72.20;;;;;;4933857;28;20241;-70
2023/09/25 01:12:05;;;;;;;1.30;1.20;;;20.90;72.30;;;;;;4955627;28;20193;-71
2023/09/25 01:14:31;;;;;;;1.67;1.58;;;20.90;72.20;;;;;;4957219;28;20276;-70
2023/09/25 01:16:57;;;;;;;1.50;1.30;;;20.90;72.20;;;;;;4955420;28;20664;-71
2023/09/25 01:19:23;;;;;;;1.50;1.40;;;20.90;72.20;;;;;;4939882;28;20185;-71
2023/09/25 01:21:49;;;;;;;1.30;1.20;;;20.90;72.10;;;;;;4941179;28;20256;-71
2023/09/25 01:24:15;;;;;;;1.48;1.38;;;20.90;72.10;;;;;;4942583;28;20194;-71
2023/09/25 01:26:40;;;;;;;1.20;1.10;;;20.90;72.10;;;;;;4957174;28;20240;-71
2023/09/25 01:29:06;;;;;;;1.10;1.00;;;20.90;72.10;;;;;;4942422;28;20617;-71
2023/09/25 01:31:32;;;;;;;1.50;1.25;;;20.90;72.20;;;;;;4941713;28;20206;-69
2023/09/25 01:33:58;;;;;;;1.23;1.13;;;20.90;72.20;;;;;;4942634;28;20192;-71
2023/09/25 01:36:23;;;;;;;1.67;1.45;;;20.80;72.00;;;;;;4942506;28;20193;-71
2023/09/25 01:38:49;;;;;;;1.27;1.17;;;20.90;72.20;;;;;;4955780;28;20224;-71
2023/09/25 01:41:15;;;;;;;1.30;1.20;;;20.90;72.10;;;;;;4956749;28;20290;-71
2023/09/25 01:43:43;;;;;;;1.35;1.20;;;20.80;72.00;;;;;;4955779;28;20211;-70
2023/09/25 01:46:09;;;;;;;1.33;1.23;;;20.90;72.20;;;;;;4939124;28;20624;-71
2023/09/25 01:48:36;;;;;;;1.20;1.10;;;20.90;72.20;;;;;;4972373;28;20244;-71
2023/09/25 01:51:10;;;;;;;1.00;1.00;;;20.90;73.00;;;;;;4972684;28;20213;-71
2023/09/25 01:53:36;;;;;;;1.80;1.40;;;20.90;72.20;;;;;;4939606;28;20185;-71
2023/09/25 01:56:15;;;;;;;1.42;1.30;;;20.80;72.10;;;;;;4954873;28;20575;-71
2023/09/25 01:58:42;;;;;;;1.20;1.10;;;20.80;72.10;;;;;;4938755;28;20210;-71
2023/09/25 02:01:09;;;;;;;1.40;1.30;;;20.80;72.30;;;;;;4964306;28;20190;-71
2023/09/25 02:03:34;;;;;;;1.27;1.17;;;20.80;72.20;;;;;;4955451;28;20194;-71
2023/09/25 02:06:00;;;;;;;1.40;1.30;;;20.80;72.00;;;;;;4937060;29;20286;-71
2023/09/25 02:08:28;;;;;;;2.20;1.15;;;20.80;72.00;;;;;;4954724;28;20216;-71
2023/09/25 02:10:54;;;;;;;1.20;1.10;;;20.80;72.10;;;;;;4939666;29;20191;-71
2023/09/25 02:13:20;;;;;;;1.27;1.17;;;20.80;72.00;;;;;;4960197;28;20190;-71
2023/09/25 02:15:47;;;;;;;1.58;1.45;;;20.90;72.10;;;;;;4945222;28;20198;-71
2023/09/25 02:18:13;;;;;;;1.60;1.30;;;20.80;72.00;;;;;;4944011;28;20205;-71
2023/09/25 02:20:39;;;;;;;1.52;1.20;;;20.80;72.00;;;;;;4942775;28;20231;-71
2023/09/25 02:23:06;;;;;;;1.40;1.27;;;20.80;72.00;;;;;;4951857;28;20201;-71
2023/09/25 02:25:31;;;;;;;1.58;1.33;;;20.80;72.00;;;;;;4941851;28;20688;-71
2023/09/25 02:27:57;;;;;;;1.40;1.30;;;20.80;71.90;;;;;;4935956;28;20217;-71
2023/09/25 02:30:23;;;;;;;1.50;1.00;;;20.80;72.00;;;;;;4933182;28;20802;-71
2023/09/25 02:32:49;;;;;;;1.35;1.17;;;20.80;72.00;;;;;;4932827;29;20194;-71
2023/09/25 02:35:15;;;;;;;1.40;1.30;;;20.80;72.00;;;;;;4965869;28;20317;-71
2023/09/25 02:37:41;;;;;;;1.27;1.17;;;20.80;72.00;;;;;;4954270;29;20301;-71
2023/09/25 02:40:09;;;;;;;1.23;1.13;;;20.80;72.00;;;;;;4954675;28;20189;-71
2023/09/25 02:42:35;;;;;;;1.45;1.35;;;20.80;72.00;;;;;;4957087;28;20201;-71
2023/09/25 02:45:01;;;;;;;1.50;1.40;;;20.80;72.10;;;;;;4942074;28;20205;-70
2023/09/25 02:47:27;;;;;;;1.33;1.23;;;20.80;72.00;;;;;;4941745;28;20213;-71
2023/09/25 02:49:54;;;;;;;1.58;1.48;;;20.80;72.90;;;;;;4958999;28;20715;-68
2023/09/25 02:52:19;;;;;;;1.25;1.15;;;20.80;72.00;;;;;;4958246;28;20185;-71
2023/09/25 02:54:45;;;;;;;2.05;1.20;;;20.90;72.20;;;;;;4955671;28;20212;-71
2023/09/25 02:57:11;;;;;;;1.30;1.20;;;20.80;72.00;;;;;;4951823;28;20698;-71
2023/09/25 02:59:37;;;;;;;1.30;1.20;;;20.80;72.10;;;;;;4945210;28;20186;-71
2023/09/25 03:02:03;;;;;;;1.20;1.10;;;20.80;72.00;;;;;;4974838;28;20203;-71
2023/09/25 03:04:28;;;;;;;1.80;1.30;;;20.80;72.00;;;;;;4950990;28;20194;-72
2023/09/25 03:06:56;;;;;;;1.60;1.50;;;20.80;72.00;;;;;;4941068;28;20204;-71
2023/09/25 03:09:22;;;;;;;0.90;0.90;;;20.80;72.00;;;;;;4956162;28;20221;-71
2023/09/25 03:11:48;;;;;;;1.40;1.27;;;20.80;72.00;;;;;;4957302;28;20178;-71
2023/09/25 03:14:13;;;;;;;1.20;1.10;;;20.80;71.90;;;;;;4955457;28;20248;-71
2023/09/25 03:16:40;;;;;;;1.40;1.30;;;20.80;71.90;;;;;;4949379;28;20209;-71
2023/09/25 03:19:06;;;;;;;1.45;1.25;;;20.80;71.90;;;;;;4949821;28;20225;-71
2023/09/25 03:21:33;;;;;;;1.83;1.30;;;20.80;71.90;;;;;;4947765;28;20206;-71
2023/09/25 03:23:59;;;;;;;1.23;1.13;;;20.80;72.00;;;;;;4942119;28;20190;-70
2023/09/25 03:26:25;;;;;;;1.33;1.23;;;20.80;72.00;;;;;;4954075;28;20228;-71
2023/09/25 03:28:51;;;;;;;1.30;1.15;;;20.80;71.90;;;;;;4943251;28;20261;-71
2023/09/25 03:31:17;;;;;;;1.50;1.40;;;20.80;72.00;;;;;;4958204;28;20184;-71
2023/09/25 03:33:48;;;;;;;1.52;1.42;;;20.80;72.00;;;;;;4942578;28;20193;-71
2023/09/25 03:36:14;;;;;;;1.17;1.08;;;20.80;72.00;;;;;;4941424;28;20198;-71
2023/09/25 03:38:40;;;;;;;1.60;1.30;;;20.80;72.10;;;;;;4956973;28;20570;-71
2023/09/25 03:41:06;;;;;;;1.65;1.50;;;20.80;71.90;;;;;;4954663;28;20213;-71
2023/09/25 03:43:32;;;;;;;1.63;1.38;;;20.80;71.90;;;;;;4934168;28;20212;-71
2023/09/25 03:45:58;;;;;;;1.30;1.20;;;20.80;72.00;;;;;;4956720;28;20189;-70
2023/09/25 03:48:24;;;;;;;1.35;1.10;;;20.80;72.00;;;;;;4972855;28;20209;-71
2023/09/25 03:50:49;;;;;;;1.38;1.27;;;20.80;72.10;;;;;;4956761;28;20279;-71
2023/09/25 03:53:15;;;;;;;1.35;1.15;;;20.80;72.00;;;;;;4972731;28;20260;-71
2023/09/25 03:55:42;;;;;;;1.33;1.20;;;20.80;72.00;;;;;;4956746;28;20220;-71
2023/09/25 03:58:07;;;;;;;1.70;1.60;;;20.80;72.00;;;;;;4956554;28;20204;-70
2023/09/25 04:00:33;;;;;;;1.33;1.20;;;20.80;71.90;;;;;;4940236;28;20197;-70
2023/09/25 04:02:59;;;;;;;1.55;1.45;;;20.80;71.90;;;;;;4957174;28;20233;-70
2023/09/25 04:05:25;;;;;;;1.30;1.20;;;20.80;71.80;;;;;;4956512;28;20595;-71
2023/09/25 04:07:51;;;;;;;1.80;1.40;;;20.70;71.80;;;;;;4973798;28;20279;-71
2023/09/25 04:10:17;;;;;;;1.40;1.30;;;20.70;71.90;;;;;;4956504;28;20213;-71
2023/09/25 04:12:43;;;;;;;1.20;1.02;;;20.70;71.80;;;;;;4956751;28;20185;-71
2023/09/25 04:15:18;;;;;;;1.30;1.15;;;20.70;71.80;;;;;;4940574;28;20189;-70
2023/09/25 04:17:43;;;;;;;1.42;1.30;;;20.80;72.00;;;;;;4941172;28;20300;-71
2023/09/25 04:20:24;;;;;;;1.30;1.20;;;20.70;71.90;;;;;;4971588;28;20252;-70
2023/09/25 04:22:57;;;;;;;1.83;1.50;;;20.70;71.80;;;;;;4959369;28;20629;-70
2023/09/25 04:25:24;;;;;;;1.48;1.38;;;20.80;72.00;;;;;;4971285;28;20552;-70
2023/09/25 04:27:54;;;;;;;1.40;1.30;;;20.70;71.90;;;;;;4973391;28;20211;-70
2023/09/25 04:30:21;;;;;;;1.42;1.13;;;20.70;72.00;;;;;;4940795;28;20221;-70
2023/09/25 04:32:53;;;;;;;1.60;1.50;;;20.70;72.00;;;;;;4956108;28;20201;-70
2023/09/25 04:35:20;;;;;;;1.48;1.20;;;20.70;72.00;;;;;;4941484;28;20193;-70
2023/09/25 04:37:45;;;;;;;1.35;1.25;;;20.70;71.80;;;;;;4939860;28;20245;-70
2023/09/25 04:42:47;;;;;;;1.27;1.17;;;20.70;71.90;;;;;;4965882;28;20181;-70
2023/09/25 04:45:16;;;;;;;1.73;1.60;;;20.70;71.80;;;;;;4956802;28;20186;-71
2023/09/25 04:47:42;;;;;;;1.30;1.20;;;20.80;71.90;;;;;;4955951;28;20276;-71
2023/09/25 04:50:10;;;;;;;1.40;1.30;;;20.70;71.80;;;;;;4956082;28;20241;-71
2023/09/25 04:52:40;;;;;;;1.23;1.13;;;20.70;71.80;;;;;;4973439;28;20194;-71
2023/09/25 04:55:10;;;;;;;1.52;1.10;;;20.70;71.80;;;;;;4955743;28;20212;-70
2023/09/25 04:57:38;;;;;;;1.35;1.25;;;20.70;71.80;;;;;;4948155;28;20296;-71
2023/09/25 05:00:17;;;;;;;1.30;1.20;;;20.70;71.80;;;;;;4972996;28;20189;-71
2023/09/25 05:02:46;;;;;;;1.58;1.30;;;20.70;72.10;;;;;;4970578;28;20283;-71
2023/09/25 05:05:13;;;;;;;1.75;1.50;;;20.70;72.00;;;;;;4955997;28;20225;-71
2023/09/25 05:07:45;;;;;;;1.60;1.50;;;20.70;72.00;;;;;;4948235;28;20222;-71
2023/09/25 05:10:14;;;;;;;1.50;1.33;;;20.70;72.00;;;;;;4939598;28;20224;-71
2023/09/25 05:12:41;;;;;;;1.75;1.65;;;20.70;72.00;;;;;;4949362;28;20217;-71
2023/09/25 05:15:08;;;;;;;1.30;1.20;;;20.70;72.00;;;;;;4963414;28;20178;-71
2023/09/25 05:17:38;;;;;;;1.60;1.38;;;20.70;72.60;;;;;;4972623;28;20209;-71
2023/09/25 05:20:15;;;;;;;1.30;1.20;;;20.70;71.90;;;;;;4972912;28;20653;-71
2023/09/25 05:22:53;;;;;;;1.20;1.10;;;20.70;71.90;;;;;;4955947;28;20239;-72
2023/09/25 05:25:20;;;;;;;1.23;1.13;;;20.70;71.90;;;;;;4955556;28;20193;-71
2023/09/25 05:27:49;;;;;;;1.50;1.40;;;20.70;71.80;;;;;;4939685;28;20228;-71
2023/09/25 05:30:20;;;;;;;1.40;1.30;;;20.70;71.90;;;;;;4955499;28;20299;-71
2023/09/25 05:32:53;;;;;;;1.40;1.30;;;20.70;71.90;;;;;;4954777;28;20190;-72
2023/09/25 05:35:19;;;;;;;1.35;1.23;;;20.70;72.10;;;;;;4955066;28;20266;-71
2023/09/25 05:37:47;;;;;;;1.40;1.30;;;20.70;72.00;;;;;;4939594;28;20201;-71
2023/09/25 05:40:15;;;;;;;2.20;1.60;;;20.70;71.90;;;;;;4935697;28;20194;-71
2023/09/25 05:42:47;;;;;;;1.50;1.40;;;20.70;72.00;;;;;;4947667;28;20196;-71
2023/09/25 05:45:15;;;;;;;1.60;1.45;;;20.70;72.00;;;;;;4942882;28;20364;-71
2023/09/25 05:47:41;;;;;;;1.35;1.25;;;20.70;72.00;;;;;;4932941;29;20213;-71
2023/09/25 05:50:08;;;;;;;1.42;1.33;;;20.70;72.00;;;;;;4959248;28;20228;-71
2023/09/25 05:52:38;;;;;;;1.85;1.33;;;20.70;72.00;;;;;;4942602;28;20332;-71
2023/09/25 05:55:06;;;;;;;1.50;1.40;;;20.70;71.80;;;;;;4954911;28;20192;-71
2023/09/25 05:57:33;;;;;;;1.63;1.40;;;20.70;71.90;;;;;;4958922;28;20709;-71
2023/09/25 05:59:59;;;;;;;2.60;1.35;;;20.70;71.90;;;;;;4959186;28;20276;-71
2023/09/25 06:02:27;;;;;;;1.30;1.20;;;20.70;71.80;;;;;;4951024;28;20193;-71
2023/09/25 06:04:54;;;;;;;1.25;1.10;;;20.70;71.80;;;;;;4958799;28;20207;-71
2023/09/25 06:07:20;;;;;;;1.73;1.30;;;20.70;71.80;;;;;;4958509;28;20260;-71
2023/09/25 06:09:46;;;;;;;1.80;1.30;;;20.70;71.90;;;;;;4958769;28;20213;-71
2023/09/25 06:12:14;;;;;;;1.98;1.30;;;20.70;71.90;;;;;;4950783;28;20185;-71
2023/09/25 06:14:39;;;;;;;1.65;1.48;;;20.70;72.00;;;;;;4983880;28;20577;-71
2023/09/25 06:17:05;;;;;;;1.40;1.30;;;20.70;72.00;;;;;;4950273;28;20731;-71
2023/09/25 06:19:31;;;;;;;1.40;1.30;;;20.70;72.00;;;;;;4975894;28;20201;-71
2023/09/25 06:21:57;;;;;;;1.73;1.40;;;20.70;72.00;;;;;;4942734;28;20185;-71
2023/09/25 06:24:22;;;;;;;1.25;1.15;;;20.70;72.00;;;;;;4954174;28;20624;-71
2023/09/25 06:26:49;;;;;;;2.08;1.52;;;20.70;72.00;;;;;;4958259;28;20284;-71
2023/09/25 06:29:15;;;;;;;1.33;1.23;;;20.70;72.00;;;;;;4950341;28;20304;-71
2023/09/25 06:31:42;;;;;;;1.70;1.60;;;20.70;71.90;;;;;;4953977;28;20193;-71
2023/09/25 06:34:08;;;;;;;1.55;1.38;;;20.70;71.90;;;;;;4962568;28;20192;-71
2023/09/25 06:36:34;;;;;;;1.85;1.40;;;20.70;71.90;;;;;;4957937;28;20191;-71
2023/09/25 06:39:01;;;;;;;1.98;1.77;;;20.70;72.00;;;;;;4949613;29;20592;-71
2023/09/25 06:41:26;;;;;;;2.50;1.70;;;20.70;72.00;;;;;;4980458;28;20197;-71
2023/09/25 06:43:54;;;;;;;1.70;1.42;;;20.70;71.90;;;;;;4958270;28;20212;-71
2023/09/25 06:46:20;;;;;;;2.47;1.60;;;20.70;71.90;;;;;;4942630;28;20221;-71
2023/09/25 06:48:50;;;;;;;1.45;1.35;;;20.70;71.80;;;;;;4948793;28;20220;-71
2023/09/25 06:51:19;;;;;;;1.77;1.45;;;20.70;71.80;;;;;;4965747;28;20196;-71
2023/09/25 06:53:45;;;;;;;1.63;1.50;;;20.70;71.80;;;;;;4975335;28;20185;-71
2023/09/25 06:56:11;;;;;;;1.58;1.48;;;20.70;71.90;;;;;;4957852;28;20252;-71
2023/09/25 06:58:38;;;;;;;1.50;1.40;;;20.70;71.80;;;;;;4960744;28;20205;-71
2023/09/25 07:01:04;;;;;;;2.13;1.67;;;20.70;71.80;;;;;;4946303;28;20193;-71
2023/09/25 07:03:30;;;;;;;1.95;1.58;;;20.70;71.70;;;;;;4957567;28;20208;-71
2023/09/25 07:05:56;;;;;;;1.60;1.50;;;20.70;71.70;;;;;;4957817;28;20209;-71
2023/09/25 07:08:23;;;;;;;2.35;1.20;;;20.70;71.90;;;;;;4957484;28;20217;-72
2023/09/25 07:10:49;;;;;;;1.40;1.30;;;20.70;71.80;;;;;;4939028;29;20206;-71
2023/09/25 07:13:20;;;;;;;1.75;1.65;;;20.70;71.90;;;;;;4954793;28;20216;-72
2023/09/25 07:15:47;;;;;;;1.98;1.77;;;20.80;71.90;;;;;;4952223;28;20181;-71
2023/09/25 07:18:19;;;;;;;1.50;1.40;;;20.70;71.90;;;;;;4959897;28;20209;-71
2023/09/25 07:20:52;;;;;;;2.00;1.80;;;20.80;72.00;;;;;;4975243;28;20209;-71
2023/09/25 07:23:18;;;;;;;1.85;1.60;;;20.80;71.80;;;;;;4957705;28;20194;-71
2023/09/25 07:25:44;;;;;;;1.80;1.50;;;20.80;71.70;;;;;;4952943;28;20320;-71
2023/09/25 07:28:11;;;;;;;2.08;1.67;;;20.80;71.60;;;;;;4951103;28;20235;-71
2023/09/25 07:30:44;;;;;;;2.38;1.73;;;20.80;71.60;;;;;;4950968;28;20753;-71
2023/09/25 07:33:12;;;;;;;1.85;1.70;;;20.80;71.40;;;;;;4960943;28;20190;-71
2023/09/25 07:35:38;;;;;;;2.35;1.80;;;20.80;71.40;;;;;;4957076;28;20668;-71
2023/09/25 07:38:04;;;;;;;1.88;1.70;;;20.80;71.40;;;;;;4941970;28;20246;-71
2023/09/25 07:40:29;;;;;;;2.70;1.80;;;20.80;71.20;;;;;;4953849;28;20666;-71
2023/09/25 07:42:55;;;;;;;1.83;1.73;;;20.90;71.40;;;;;;4941258;28;20200;-71
2023/09/25 07:45:25;;;;;;;1.88;1.67;;;20.90;71.30;;;;;;4956937;28;20193;-71
2023/09/25 07:47:54;;;;;;;1.98;1.45;;;20.90;71.10;;;;;;4956772;28;20213;-71
2023/09/25 07:50:24;;;;;;;1.70;1.60;;;20.90;71.00;;;;;;4948479;28;20283;-71
2023/09/25 07:52:54;;;;;;;1.90;1.73;;;20.90;71.00;;;;;;4941278;28;20196;-71
2023/09/25 07:55:22;;;;;;;2.08;1.88;;;21.00;71.20;;;;;;4951427;28;20183;-71
2023/09/25 07:57:49;;;;;;;1.88;1.23;;;21.00;71.30;;;;;;4956555;28;20292;-71
2023/09/25 08:02:49;;;;;;;2.00;1.80;;;21.00;71.10;;;;;;4961955;28;20214;-71
2023/09/25 08:05:16;;;;;;;1.80;1.70;;;21.00;71.20;;;;;;4953097;28;20269;-71
2023/09/25 08:07:42;;;;;;;2.00;1.80;;;21.00;71.00;;;;;;4939049;28;20284;-72
2023/09/25 08:10:08;;;;;;;1.70;1.60;;;21.00;71.00;;;;;;4955684;28;20218;-71
2023/09/25 08:12:34;;;;;;;1.70;1.60;;;21.10;71.10;;;;;;4955710;28;20193;-71
2023/09/25 08:15:00;;;;;;;1.60;1.50;;;21.10;71.20;;;;;;4940019;28;20182;-71
2023/09/25 08:17:25;;;;;;;2.00;1.50;;;21.10;71.20;;;;;;4940150;28;20264;-71
2023/09/25 08:19:52;;;;;;;1.65;1.55;;;21.10;71.10;;;;;;4961904;28;20196;-71
2023/09/25 08:22:18;;;;;;;1.60;1.50;;;21.00;71.00;;;;;;4954031;28;20185;-71
2023/09/25 08:24:44;;;;;;;1.83;1.70;;;21.10;71.20;;;;;;4939516;28;20196;-71
2023/09/25 08:27:10;;;;;;;2.60;1.70;;;21.00;71.00;;;;;;4972559;28;20209;-71
2023/09/25 08:29:36;;;;;;;1.60;1.50;;;21.00;71.00;;;;;;4946846;28;20221;-71
2023/09/25 08:32:01;;;;;;;2.60;1.60;;;21.10;71.20;;;;;;4955327;28;20189;-71
2023/09/25 08:34:27;;;;;;;1.67;1.58;;;21.10;71.20;;;;;;4951274;28;20205;-71
2023/09/25 08:36:53;;;;;;;1.83;1.50;;;21.10;71.20;;;;;;4961192;28;20190;-71
2023/09/25 08:39:18;;;;;;;1.70;1.60;;;21.10;71.10;;;;;;4924007;28;20201;-71
2023/09/25 08:41:46;;;;;;;1.98;1.55;;;21.10;71.20;;;;;;4939667;28;20196;-71
2023/09/25 08:44:15;;;;;;;2.20;1.60;;;21.10;71.30;;;;;;4955343;28;20272;-71
2023/09/25 08:46:43;;;;;;;1.92;1.73;;;21.10;71.30;;;;;;4938372;28;20194;-71
2023/09/25 08:49:10;;;;;;;1.50;1.40;;;21.10;71.20;;;;;;4946398;28;20229;-71
2023/09/25 08:51:38;;;;;;;1.98;1.52;;;21.10;71.30;;;;;;4962307;28;20193;-71
2023/09/25 08:54:06;;;;;;;1.58;1.48;;;21.10;71.30;;;;;;4939169;28;20196;-71
2023/09/25 08:56:33;;;;;;;2.30;1.60;;;21.10;72.10;;;;;;4954903;28;20268;-71
2023/09/25 08:59:02;;;;;;;2.00;1.60;;;21.10;72.10;;;;;;4961951;28;20209;-71
2023/09/25 09:02:43;;;;;;;3.50;1.60;;;21.10;71.30;;;;;;5087019;28;20548;-71
2023/09/25 09:05:16;;;;;;;1.92;1.50;;;21.10;71.30;;;;;;5082695;28;20186;-72
2023/09/25 09:08:03;;;;;;;1.45;1.35;;;21.10;71.20;;;;;;5063748;28;20204;-71
2023/09/25 09:10:35;;;;;;;1.92;1.30;;;21.10;71.40;;;;;;5044858;28;20201;-71
2023/09/25 09:13:07;;;;;;;1.88;1.55;;;21.10;71.20;;;;;;5065715;28;20190;-71
2023/09/25 09:15:32;;;;;;;2.00;1.60;;;21.10;71.20;;;;;;5048546;28;20342;-71
2023/09/25 09:18:15;;;;;;;1.73;1.55;;;21.10;71.20;;;;;;5059319;28;20289;-72
2023/09/25 09:20:42;;;;;;;1.67;1.33;;;21.10;71.20;;;;;;5064962;28;20206;-71
2023/09/25 09:23:09;;;;;;;1.65;1.50;;;21.10;71.20;;;;;;5065299;28;20182;-72
2023/09/25 09:25:35;;;;;;;2.15;1.83;;;21.10;71.10;;;;;;5045524;28;20198;-71
2023/09/25 09:28:04;;;;;;;1.50;1.40;;;21.10;71.10;;;;;;5052689;28;20208;-71
2023/09/25 09:30:30;;;;;;;2.15;1.58;;;21.10;71.10;;;;;;5065066;28;20225;-73
2023/09/25 09:32:57;;;;;;;1.50;1.40;;;21.10;71.30;;;;;;5052752;28;20190;-71
2023/09/25 09:35:26;;;;;;;1.40;1.30;;;21.10;71.20;;;;;;5054338;28;20178;-72
2023/09/25 09:37:55;;;;;;;1.40;1.30;;;21.10;71.20;;;;;;5060337;28;20217;-71
2023/09/25 09:40:24;;;;;;;1.45;1.35;;;21.10;71.20;;;;;;5061409;28;20249;-73
2023/09/25 09:42:51;;;;;;;1.48;1.23;;;21.10;71.20;;;;;;5051202;28;20247;-72
2023/09/25 09:45:21;;;;;;;1.98;1.20;;;21.10;71.10;;;;;;5066319;28;20182;-72
2023/09/25 09:47:50;;;;;;;1.52;1.42;;;21.10;71.10;;;;;;5047615;28;20206;-71
2023/09/25 09:50:28;;;;;;;1.60;1.48;;;21.10;71.20;;;;;;5048038;28;20208;-71
2023/09/25 09:52:56;;;;;;;2.05;1.50;;;21.10;71.30;;;;;;5064387;28;20186;-71
2023/09/25 09:55:22;;;;;;;1.55;1.45;;;21.10;71.10;;;;;;5064216;28;20190;-71
2023/09/25 09:57:51;;;;;;;1.42;1.33;;;21.10;71.20;;;;;;5050337;28;20214;-72
2023/09/25 10:00:17;;;;;;;2.00;1.40;;;21.10;71.10;;;;;;5064558;28;20253;-71
2023/09/25 10:02:47;;;;;;;1.30;1.20;;;21.10;71.10;;;;;;5048297;28;20190;-71
2023/09/25 10:05:14;;;;;;;1.67;1.30;;;21.10;71.10;;;;;;5060618;28;20178;-71
2023/09/25 10:08:05;;;;;;;1.45;1.35;;;21.10;70.90;;;;;;5056512;28;20289;-71
2023/09/25 10:10:31;;;;;;;1.35;1.25;;;21.10;70.90;;;;;;5062528;28;20194;-71
2023/09/25 10:12:57;;;;;;;2.00;1.58;;;21.10;71.00;;;;;;5055950;28;20683;-72
2023/09/25 10:15:25;;;;;;;1.65;1.50;;;21.10;71.80;;;;;;5050072;28;20179;-71
2023/09/25 10:17:53;;;;;;;2.13;1.65;;;21.10;70.90;;;;;;5038206;28;20205;-71
2023/09/25 10:20:31;;;;;;;2.13;1.30;;;21.10;71.00;;;;;;5033066;28;20189;-71
2023/09/25 10:23:08;;;;;;;1.70;1.50;;;21.10;70.90;;;;;;5038989;28;20187;-72
2023/09/25 10:25:57;;;;;;;1.48;1.38;;;21.10;71.10;;;;;;5048237;28;20195;-72
2023/09/25 10:28:38;;;;;;;1.10;1.00;;;21.10;70.90;;;;;;5049634;28;20307;-71
2023/09/25 10:31:19;;;;;;;1.50;1.40;;;21.10;70.80;;;;;;5057087;28;20186;-71
2023/09/25 10:33:57;;;;;;;1.50;1.10;;;21.10;70.80;;;;;;5048666;28;20194;-72
2023/09/25 10:36:47;;;;;;;1.30;1.20;;;21.10;70.80;;;;;;5050779;28;20185;-71
2023/09/25 10:39:17;;;;;;;1.50;1.40;;;21.10;71.00;;;;;;5042677;28;20189;-72
2023/09/25 10:41:47;;;;;;;1.83;1.23;;;21.10;71.10;;;;;;5040969;28;20296;-71
2023/09/25 10:44:15;;;;;;;1.30;1.20;;;21.20;71.20;;;;;;5057619;28;20182;-72
2023/09/25 10:46:41;;;;;;;1.42;1.33;;;21.10;70.80;;;;;;5032387;28;20206;-72
2023/09/25 10:49:08;;;;;;;1.67;1.20;;;21.10;71.20;;;;;;5049249;28;20198;-71
2023/09/25 10:51:35;;;;;;;1.45;1.13;;;21.20;70.90;;;;;;5048492;28;20191;-72
2023/09/25 10:54:04;;;;;;;1.30;1.20;;;21.10;71.10;;;;;;5048963;28;20190;-71
2023/09/25 10:56:31;;;;;;;1.25;1.15;;;21.20;71.20;;;;;;5042260;28;20213;-72
2023/09/25 10:58:57;;;;;;;1.42;1.33;;;21.10;71.20;;;;;;5048586;28;20210;-72
2023/09/25 11:01:28;;;;;;;3.90;1.50;;;21.20;70.90;;;;;;5037733;28;20199;-72
2023/09/25 11:03:57;;;;;;;1.38;1.27;;;21.20;71.00;;;;;;5043851;28;20191;-72
2023/09/25 11:06:23;;;;;;;1.65;1.40;;;21.20;71.10;;;;;;5039339;28;20190;-72
2023/09/25 11:09:04;;;;;;;1.80;1.30;;;21.20;71.20;;;;;;5027508;28;20206;-73
2023/09/25 11:11:30;;;;;;;1.30;1.20;;;21.20;71.20;;;;;;5032696;28;20674;-73
2023/09/25 11:13:58;;;;;;;1.40;1.30;;;21.20;71.30;;;;;;5040597;28;20183;-72
2023/09/25 11:16:25;;;;;;;1.23;1.08;;;21.20;71.30;;;;;;5042105;28;20646;-72
2023/09/25 11:19:11;;;;;;;1.30;1.20;;;21.20;71.20;;;;;;5060284;28;20241;-71
2023/09/25 11:21:38;;;;;;;1.65;1.30;;;21.20;71.30;;;;;;5030422;28;20207;-72
2023/09/25 11:24:09;;;;;;;1.50;1.40;;;21.20;71.00;;;;;;5043240;28;20186;-73
2023/09/25 11:26:41;;;;;;;1.30;1.20;;;21.10;71.10;;;;;;5045702;28;20217;-71
2023/09/25 11:29:12;;;;;;;1.33;1.23;;;21.20;71.30;;;;;;5029272;28;20203;-71
2023/09/25 11:31:39;;;;;;;1.65;1.50;;;21.20;71.10;;;;;;5041578;28;20198;-71
2023/09/25 11:34:09;;;;;;;1.60;1.50;;;21.20;70.90;;;;;;5041617;28;20185;-71
2023/09/25 11:36:42;;;;;;;1.60;1.50;;;21.20;71.10;;;;;;5029257;28;20187;-71
2023/09/25 11:39:17;;;;;;;2.17;1.30;;;21.20;71.20;;;;;;5047968;28;20310;-71
2023/09/25 11:41:44;;;;;;;1.23;1.13;;;21.20;71.40;;;;;;5046453;28;20268;-71
2023/09/25 11:44:09;;;;;;;1.50;1.40;;;21.20;71.40;;;;;;5048953;28;20186;-71
2023/09/25 11:46:36;;;;;;;1.60;1.40;;;21.20;71.50;;;;;;5029022;28;20233;-71
2023/09/25 11:49:01;;;;;;;1.77;1.33;;;21.20;71.50;;;;;;5026828;28;20207;-71
2023/09/25 11:51:27;;;;;;;1.35;1.17;;;21.20;71.30;;;;;;5043880;28;20189;-71
2023/09/25 11:53:53;;;;;;;1.40;1.30;;;21.20;71.40;;;;;;5036237;28;20612;-71
2023/09/25 11:56:19;;;;;;;1.40;1.30;;;21.20;71.60;;;;;;5046228;28;20724;-71
2023/09/25 11:58:45;;;;;;;1.33;1.23;;;21.20;71.60;;;;;;5039846;28;20357;-71
2023/09/25 12:01:10;;;;;;;1.60;1.25;;;21.20;71.50;;;;;;5048877;28;20243;-71
2023/09/25 12:03:39;;;;;;;1.70;1.48;;;21.20;71.40;;;;;;5063696;28;20198;-71
2023/09/25 12:06:05;;;;;;;1.55;1.30;;;21.20;71.60;;;;;;5030475;28;20665;-71
2023/09/25 12:08:32;;;;;;;1.80;1.40;;;21.20;71.50;;;;;;5045749;28;20210;-72
2023/09/25 12:10:59;;;;;;;1.40;1.30;;;21.20;71.70;;;;;;5035524;28;20193;-71
2023/09/25 12:13:25;;;;;;;1.70;1.48;;;21.20;71.40;;;;;;5039962;28;20190;-71
2023/09/25 12:15:51;;;;;;;1.65;1.48;;;21.20;71.50;;;;;;5040427;28;20653;-71
2023/09/25 12:18:17;;;;;;;1.70;1.35;;;21.20;71.60;;;;;;5029461;28;20210;-71
2023/09/25 12:20:43;;;;;;;1.88;1.40;;;21.20;72.00;;;;;;5041441;28;20686;-72
2023/09/25 12:23:09;;;;;;;2.15;1.55;;;21.20;71.40;;;;;;5046837;28;20190;-71
2023/09/25 12:25:36;;;;;;;1.77;1.45;;;21.20;71.80;;;;;;5044307;28;20203;-71
2023/09/25 12:28:04;;;;;;;1.58;1.40;;;21.20;71.80;;;;;;5029777;28;20209;-71
2023/09/25 12:30:30;;;;;;;2.03;1.40;;;21.20;72.30;;;;;;5040235;28;20283;-71
2023/09/25 12:32:55;;;;;;;1.40;1.30;;;21.20;72.10;;;;;;5048567;28;20206;-71
2023/09/25 12:35:21;;;;;;;1.63;1.38;;;21.20;72.70;;;;;;5027745;28;20313;-72
2023/09/25 12:37:49;;;;;;;2.28;1.50;;;21.20;72.40;;;;;;5045031;28;20214;-71
2023/09/25 12:40:15;;;;;;;1.75;1.33;;;21.20;72.00;;;;;;5040010;28;20175;-72
2023/09/25 12:42:44;;;;;;;1.50;1.40;;;21.20;72.00;;;;;;5044339;28;20225;-71
2023/09/25 12:45:11;;;;;;;1.90;1.27;;;21.20;72.10;;;;;;5046289;28;20857;-71
2023/09/25 12:47:37;;;;;;;2.13;1.30;;;21.20;72.00;;;;;;5043376;28;20211;-72
2023/09/25 12:50:04;;;;;;;1.58;1.48;;;21.20;72.00;;;;;;5046266;28;20186;-71
2023/09/25 12:52:31;;;;;;;1.35;1.25;;;21.20;72.20;;;;;;5043619;28;20199;-71
2023/09/25 12:54:58;;;;;;;1.60;1.50;;;21.20;72.00;;;;;;5035783;28;20190;-71
2023/09/25 12:57:24;;;;;;;1.73;1.52;;;21.20;72.40;;;;;;5045606;28;20209;-71